Time;durP1;ratioP1;P1;durP2;ratioP2;P2;SDS_P1;SDS_P2;PMS_P1;PMS_P2;Temp;Humidity;BMP_temperature;BMP_pressure;BME280_temperature;BME280_humidity;BME280_pressure;Samples;Min_cycle;Max_cycle;Signal;HPM_P1;HPM_P2
2023/04/02 00:00:10;;;;;;;15.90;11.80;;;;;;;11.13;80.66;98174.86;107395;1257;67772;-37
2023/04/02 00:02:57;;;;;;;;;;;;;;;11.09;80.78;98173.40;107359;1257;73836;-37
2023/04/02 00:05:29;;;;;;;15.20;10.90;;;;;;;10.98;80.90;98163.20;107365;1257;63232;-37
2023/04/02 00:08:01;;;;;;;14.60;10.80;;;;;;;11.05;80.70;98174.64;107410;1257;60355;-37
2023/04/02 00:10:38;;;;;;;14.50;10.80;;;;;;;11.07;80.75;98175.17;107341;1257;74241;-37
2023/04/02 00:13:10;;;;;;;15.40;12.20;;;;;;;11.07;80.79;98172.25;107120;1257;69112;-37
2023/04/02 00:15:45;;;;;;;14.20;11.10;;;;;;;11.06;80.75;98172.79;107243;1256;71751;-37
2023/04/02 00:18:19;;;;;;;13.70;10.40;;;;;;;11.06;80.69;98173.95;107251;1257;62862;-37
2023/04/02 00:20:55;;;;;;;13.80;10.70;;;;;;;11.11;80.36;98171.53;107358;1257;61067;-37
2023/04/02 00:23:24;;;;;;;15.20;11.70;;;;;;;11.11;80.29;98172.48;107393;1257;74222;-37
2023/04/02 00:25:52;;;;;;;17.20;11.80;;;;;;;11.04;80.40;98173.41;107360;1256;69039;-37
2023/04/02 00:28:22;;;;;;;19.60;11.70;;;;;;;11.00;80.54;98174.34;107342;1257;73246;-37
2023/04/02 00:30:52;;;;;;;13.40;8.20;;;;;;;10.97;80.55;98179.24;107315;1256;63195;-37
2023/04/02 00:33:21;;;;;;;14.60;10.50;;;;;;;10.99;80.53;98173.89;107171;1256;60023;-37
2023/04/02 00:35:50;;;;;;;;;;;;;;;11.03;80.50;98175.19;107298;1256;75107;-37
2023/04/02 00:38:30;;;;;;;14.40;11.00;;;;;;;10.93;80.63;98172.80;107366;1256;69190;-38
2023/04/02 00:41:03;;;;;;;18.80;11.80;;;;;;;10.87;80.88;98176.15;107357;1257;73898;-38
2023/04/02 00:43:36;;;;;;;15.10;11.10;;;;;;;10.79;80.90;98167.95;107325;1256;63003;-36
2023/04/02 00:46:09;;;;;;;14.30;10.30;;;;;;;10.85;80.71;98175.92;107396;1256;61473;-38
2023/04/02 00:49:20;;;;;;;13.50;10.10;;;;;;;10.88;80.75;98174.75;107355;1254;74217;-38
2023/04/02 00:51:52;;;;;;;13.90;10.80;;;;;;;10.88;80.74;98174.90;107280;1254;69307;-36
2023/04/02 00:54:21;;;;;;;13.60;11.20;;;;;;;10.84;80.81;98178.55;107364;1254;73808;-37
2023/04/02 00:56:53;;;;;;;14.10;10.40;;;;;;;10.83;80.79;98178.33;107422;1254;62442;-37
2023/04/02 00:59:34;;;;;;;13.40;9.80;;;;;;;10.83;80.59;98177.55;107476;1254;60409;-37
2023/04/02 01:02:13;;;;;;;12.00;9.80;;;;;;;10.92;80.43;98178.09;107370;1254;75047;-37
2023/04/02 01:05:19;;;;;;;13.70;10.70;;;;;;;10.92;80.38;98180.33;107444;1254;68607;-37
2023/04/02 01:07:58;;;;;;;15.20;11.00;;;;;;;10.88;80.47;98179.71;107446;1260;73939;-37
2023/04/02 01:10:39;;;;;;;12.60;10.30;;;;;;;10.85;80.43;98182.20;107471;1259;63190;-37
2023/04/02 01:13:52;;;;;;;14.90;9.80;;;;;;;10.91;80.26;98181.27;107429;1254;61194;-37
2023/04/02 01:16:29;;;;;;;14.60;10.00;;;;;;;10.97;80.18;98182.11;107491;1254;75071;-37
2023/04/02 01:19:20;;;;;;;14.10;10.70;;;;;;;10.98;80.16;98183.65;107468;1254;69170;-38
2023/04/02 01:22:07;;;;;;;;;;;;;;;10.97;79.86;98180.94;107481;1254;72588;-38
2023/04/02 01:24:37;;;;;;;15.30;10.30;;;;;;;10.84;79.99;98182.65;107282;1254;63242;-38
2023/04/02 01:27:17;;;;;;;14.00;9.40;;;;;;;10.83;80.11;98180.64;107131;1254;61543;-38
2023/04/02 01:29:56;;;;;;;14.20;10.30;;;;;;;10.90;79.96;98182.27;107197;1254;74680;-38
2023/04/02 01:32:27;;;;;;;12.60;10.60;;;;;;;10.91;79.98;98182.80;107450;1254;69183;-38
2023/04/02 01:34:57;;;;;;;13.70;11.30;;;;;;;10.93;80.06;98185.20;107272;1260;73839;-38
2023/04/02 01:37:43;;;;;;;15.50;9.30;;;;;;;10.93;79.82;98188.92;107289;1254;62987;-38
2023/04/02 01:40:43;;;;;;;12.50;9.90;;;;;;;10.92;79.56;98192.41;107354;1254;61489;-38
2023/04/02 01:43:36;;;;;;;15.80;11.00;;;;;;;10.94;79.72;98193.88;107460;1254;73500;-38
2023/04/02 01:46:22;;;;;;;16.10;11.10;;;;;;;10.94;79.81;98193.80;107409;1260;68956;-38
2023/04/02 01:48:55;;;;;;;13.90;10.30;;;;;;;10.90;79.56;98193.33;107319;1254;73644;-38
2023/04/02 01:51:26;;;;;;;14.70;10.50;;;;;;;10.87;79.41;98196.45;107438;1254;63090;-38
2023/04/02 01:53:55;;;;;;;13.00;10.30;;;;;;;10.91;79.37;98198.54;107488;1254;60434;-38
2023/04/02 01:56:24;;;;;;;12.40;10.20;;;;;;;10.88;79.23;98195.52;107232;1254;74823;-39
2023/04/02 01:58:53;;;;;;;14.60;10.90;;;;;;;10.76;79.47;98185.69;107070;1255;68177;-36
2023/04/02 02:01:26;;;;;;;19.40;10.70;;;;;;;10.74;79.47;98194.76;107462;1254;73579;-37
2023/04/02 02:03:55;;;;;;;14.60;11.00;;;;;;;10.70;79.59;98188.78;107254;1254;63206;-38
2023/04/02 02:06:24;;;;;;;13.40;10.10;;;;;;;10.70;79.81;98194.76;107244;1257;60444;-37
2023/04/02 02:09:02;;;;;;;16.10;10.70;;;;;;;10.64;79.96;98189.57;107174;1260;75015;-37
2023/04/02 02:11:31;;;;;;;15.40;11.10;;;;;;;10.58;80.39;98189.03;107401;1259;68692;-37
2023/04/02 02:14:04;;;;;;;17.50;10.20;;;;;;;10.56;80.47;98189.42;107392;1258;72990;-37
2023/04/02 02:16:40;;;;;;;15.30;11.30;;;;;;;10.59;80.42;98191.96;107150;1254;61643;-37
2023/04/02 02:19:20;;;;;;;16.50;12.20;;;;;;;10.59;80.43;98189.34;107175;1254;60137;-37
2023/04/02 02:21:51;;;;;;;18.00;12.30;;;;;;;10.56;80.63;98190.19;107474;1254;73642;-37
2023/04/02 02:24:30;;;;;;;14.50;10.80;;;;;;;10.55;80.87;98189.17;107481;1257;69605;-37
2023/04/02 02:27:25;;;;;;;15.90;10.90;;;;;;;10.61;80.80;98188.11;107456;1254;72614;-38
2023/04/02 02:30:13;;;;;;;17.40;11.00;;;;;;;10.65;80.56;98187.71;107134;1254;61264;-37
2023/04/02 02:32:56;;;;;;;17.00;11.80;;;;;;;10.62;80.61;98189.10;107316;1254;60750;-37
2023/04/02 02:35:44;;;;;;;14.70;10.40;;;;;;;10.57;80.47;98189.26;107277;1254;75209;-37
2023/04/02 02:38:28;;;;;;;14.00;10.90;;;;;;;10.58;80.49;98190.11;107458;1255;67327;-37
2023/04/02 02:41:23;;;;;;;15.20;11.90;;;;;;;10.59;80.37;98192.52;107464;1257;73559;-37
2023/04/02 02:44:15;;;;;;;18.40;12.20;;;;;;;10.54;80.73;98191.75;107266;1257;60456;-37
2023/04/02 02:47:10;;;;;;;16.10;11.20;;;;;;;10.47;80.66;98193.05;107404;1254;61159;-36
2023/04/02 02:49:41;;;;;;;14.80;11.00;;;;;;;10.41;80.93;98193.59;107437;1255;75033;-37
2023/04/02 02:52:21;;;;;;;13.90;10.90;;;;;;;10.47;80.96;98197.70;107473;1259;69135;-37
2023/04/02 02:55:00;;;;;;;17.50;11.40;;;;;;;10.49;80.85;98200.95;107369;1257;73663;-37
2023/04/02 02:57:39;;;;;;;13.00;9.10;;;;;;;10.45;80.94;98198.92;107255;1256;61325;-37
2023/04/02 03:00:10;;;;;;;17.40;11.00;;;;;;;10.42;81.25;98200.48;107268;1254;61223;-37
2023/04/02 03:02:40;;;;;;;17.00;10.90;;;;;;;10.47;81.11;98200.48;107260;1254;73845;-37
2023/04/02 03:05:22;;;;;;;15.70;11.30;;;;;;;10.49;80.93;98203.44;107437;1254;67974;-37
2023/04/02 03:07:54;;;;;;;16.90;11.80;;;;;;;10.48;81.02;98209.08;107177;1254;73912;-37
2023/04/02 03:10:35;;;;;;;17.80;11.80;;;;;;;10.47;81.17;98211.79;107253;1257;61622;-37
2023/04/02 03:13:13;;;;;;;15.60;10.60;;;;;;;10.50;81.21;98211.09;107461;1254;61525;-37
2023/04/02 03:16:08;;;;;;;14.80;11.30;;;;;;;10.56;80.84;98212.95;107436;1254;74642;-37
2023/04/02 03:18:43;;;;;;;13.20;11.00;;;;;;;10.58;80.73;98216.05;107476;1255;69122;-37
2023/04/02 03:21:15;;;;;;;16.20;12.40;;;;;;;10.57;80.83;98214.89;107292;1254;73816;-38
2023/04/02 03:23:53;;;;;;;14.50;11.60;;;;;;;10.53;80.76;98219.92;107272;1254;60626;-38
2023/04/02 03:26:37;;;;;;;11.40;9.50;;;;;;;10.50;80.94;98221.54;107335;1254;61412;-38
2023/04/02 03:29:26;;;;;;;14.50;10.60;;;;;;;10.53;80.81;98219.77;107359;1254;73681;-38
2023/04/02 03:31:56;;;;;;;14.10;11.50;;;;;;;10.55;81.10;98219.92;107199;1254;68096;-38
2023/04/02 03:34:40;;;;;;;15.60;11.90;;;;;;;10.55;81.14;98223.17;107345;1254;73534;-38
2023/04/02 03:37:20;;;;;;;16.10;10.40;;;;;;;10.55;81.06;98227.52;107228;1254;62847;-38
2023/04/02 03:39:50;;;;;;;13.30;10.80;;;;;;;10.59;80.87;98230.84;107404;1255;61436;-38
2023/04/02 03:42:25;;;;;;;17.40;11.50;;;;;;;10.61;80.84;98235.02;107379;1254;75070;-38
2023/04/02 03:45:05;;;;;;;14.60;11.20;;;;;;;10.61;80.79;98235.64;107364;1257;69059;-38
2023/04/02 03:47:41;;;;;;;15.70;10.80;;;;;;;10.58;80.96;98237.11;107372;1254;73902;-38
2023/04/02 03:50:16;;;;;;;13.80;9.50;;;;;;;10.55;80.98;98239.98;107377;1254;63275;-38
2023/04/02 03:52:45;;;;;;;16.60;10.50;;;;;;;10.60;81.09;98245.55;107430;1254;61558;-38
2023/04/02 03:55:17;;;;;;;14.40;11.00;;;;;;;10.64;81.04;98246.33;107288;1258;73855;-38
2023/04/02 03:57:57;;;;;;;15.60;10.50;;;;;;;10.65;81.07;98247.50;107379;1254;68444;-38
2023/04/02 04:00:40;;;;;;;14.90;10.80;;;;;;;10.61;80.93;98244.15;107461;1255;73540;-37
2023/04/02 04:03:34;;;;;;;14.00;10.00;;;;;;;10.62;80.88;98245.94;107122;1254;63070;-37
2023/04/02 04:06:22;;;;;;;14.80;9.80;;;;;;;10.67;80.91;98246.02;107146;1254;61523;-37
2023/04/02 04:08:55;;;;;;;15.40;10.60;;;;;;;10.68;81.00;98245.71;107367;1254;73947;-37
2023/04/02 04:11:35;;;;;;;12.60;9.90;;;;;;;10.66;80.97;98244.47;107401;1254;69098;-37
2023/04/02 04:14:06;;;;;;;11.80;8.80;;;;;;;10.60;80.88;98246.86;107210;1255;73810;-37
2023/04/02 04:16:48;;;;;;;13.80;9.00;;;;;;;10.58;80.81;98249.18;107388;1255;62889;-37
2023/04/02 04:19:44;;;;;;;11.70;9.00;;;;;;;10.59;80.91;98248.27;107453;1254;61517;-37
2023/04/02 04:22:29;;;;;;;13.30;10.30;;;;;;;10.56;81.20;98248.58;107502;1255;73737;-37
2023/04/02 04:25:05;;;;;;;11.70;9.30;;;;;;;10.56;81.46;98250.73;107508;1254;68855;-37
2023/04/02 04:27:41;;;;;;;10.00;8.70;;;;;;;10.59;81.39;98255.23;107325;1257;73835;-37
2023/04/02 04:30:41;;;;;;;11.20;8.90;;;;;;;10.66;81.00;98257.33;107294;1254;60605;-37
2023/04/02 04:33:21;;;;;;;12.20;9.40;;;;;;;10.66;81.03;98258.73;107530;1254;61187;-37
2023/04/02 04:35:58;;;;;;;11.60;9.40;;;;;;;10.62;81.31;98263.83;107229;1258;75258;-37
2023/04/02 04:38:38;;;;;;;12.90;8.50;;;;;;;10.59;81.24;98262.20;107289;1254;68976;-37
2023/04/02 04:41:12;;;;;;;12.00;8.70;;;;;;;10.60;81.24;98263.90;107291;1254;72955;-37
2023/04/02 04:43:41;;;;;;;10.80;8.90;;;;;;;10.60;81.40;98264.76;107172;1254;60450;-37
2023/04/02 04:46:17;;;;;;;11.30;8.90;;;;;;;10.61;81.56;98263.91;107399;1254;61358;-38
2023/04/02 04:48:51;;;;;;;13.00;9.40;;;;;;;10.64;81.75;98268.55;107195;1254;74867;-37
2023/04/02 04:51:28;;;;;;;10.80;8.30;;;;;;;10.63;81.70;98274.44;107332;1254;67811;-37
2023/04/02 04:53:59;;;;;;;10.50;8.40;;;;;;;10.70;81.60;98271.20;107192;1260;71723;-37
2023/04/02 04:56:29;;;;;;;10.10;8.30;;;;;;;10.77;81.60;98270.73;107165;1254;61443;-37
2023/04/02 04:59:15;;;;;;;11.60;8.90;;;;;;;10.80;81.44;98271.98;107210;1254;61248;-37
2023/04/02 05:02:04;;;;;;;9.70;7.90;;;;;;;10.79;81.35;98272.44;107273;1256;75108;-37
2023/04/02 05:04:40;;;;;;;10.90;7.70;;;;;;;10.82;80.90;98275.01;107347;1254;67972;-37
2023/04/02 05:07:35;;;;;;;10.80;8.00;;;;;;;10.81;81.08;98276.09;107278;1254;73780;-37
2023/04/02 05:10:08;;;;;;;12.10;8.70;;;;;;;10.82;81.22;98276.86;107442;1254;61280;-38
2023/04/02 05:12:57;;;;;;;10.40;8.30;;;;;;;10.80;81.26;98278.64;107297;1254;61552;-38
2023/04/02 05:15:48;;;;;;;8.90;7.00;;;;;;;10.78;81.04;98274.23;107441;1254;75072;-38
2023/04/02 05:18:56;;;;;;;12.30;9.10;;;;;;;10.85;81.18;98282.44;107495;1254;69083;-38
2023/04/02 05:21:42;;;;;;;11.30;7.80;;;;;;;10.86;81.37;98281.73;107209;1254;72842;-38
2023/04/02 05:24:36;;;;;;;8.90;7.00;;;;;;;10.84;81.14;98283.66;107302;1254;63334;-38
2023/04/02 05:27:17;;;;;;;9.70;7.90;;;;;;;10.85;81.00;98283.67;107469;1254;60492;-38
2023/04/02 05:29:48;;;;;;;9.20;7.30;;;;;;;10.84;81.14;98285.14;107298;1254;75030;-38
2023/04/02 05:32:23;;;;;;;9.00;7.60;;;;;;;10.85;81.27;98284.83;107297;1254;69001;-38
2023/04/02 05:34:53;;;;;;;9.70;6.80;;;;;;;10.85;81.21;98285.54;107182;1257;73829;-38
2023/04/02 05:37:25;;;;;;;7.50;6.40;;;;;;;10.90;80.98;98289.02;107350;1257;63167;-38
2023/04/02 05:39:55;;;;;;;10.20;7.70;;;;;;;10.94;80.92;98288.48;107287;1254;61586;-38
2023/04/02 05:42:27;;;;;;;9.50;7.90;;;;;;;10.94;80.92;98287.16;107219;1255;75132;-38
2023/04/02 05:45:02;;;;;;;9.80;7.60;;;;;;;10.85;80.91;98287.46;107332;1257;68923;-38
2023/04/02 05:47:33;;;;;;;11.40;7.40;;;;;;;10.92;81.02;98294.14;107415;1256;73803;-38
2023/04/02 05:50:11;;;;;;;7.60;6.80;;;;;;;11.00;80.83;98294.68;107216;1257;60583;-38
2023/04/02 05:52:57;;;;;;;11.30;7.20;;;;;;;11.02;80.92;98295.61;107302;1257;61225;-38
2023/04/02 05:55:28;;;;;;;8.90;7.30;;;;;;;11.02;80.95;98295.84;107262;1257;74804;-38
2023/04/02 05:58:16;;;;;;;9.30;7.00;;;;;;;11.01;80.97;98295.91;107317;1257;68787;-38
2023/04/02 06:01:28;;;;;;;7.90;6.40;;;;;;;10.98;80.57;98290.96;107296;1256;73778;-38
2023/04/02 06:04:29;;;;;;;9.30;7.00;;;;;;;11.01;80.56;98302.81;107277;1256;61659;-38
2023/04/02 06:07:07;;;;;;;9.60;6.90;;;;;;;10.97;80.84;98306.77;107269;1258;61500;-38
2023/04/02 06:09:56;;;;;;;8.00;6.30;;;;;;;10.90;80.97;98312.73;107336;1257;74717;-38
2023/04/02 06:12:52;;;;;;;9.10;6.80;;;;;;;10.92;80.89;98315.44;107257;1257;69158;-38
2023/04/02 06:15:22;;;;;;;8.40;7.00;;;;;;;10.90;80.98;98310.79;107209;1261;72686;-38
2023/04/02 06:18:07;;;;;;;10.00;7.90;;;;;;;10.83;81.16;98315.60;107175;1263;61576;-38
2023/04/02 06:20:37;;;;;;;7.70;6.20;;;;;;;10.79;81.44;98317.52;107351;1254;59993;-38
2023/04/02 06:23:10;;;;;;;8.90;7.00;;;;;;;10.84;81.33;98316.43;107247;1257;74064;-38
2023/04/02 06:25:48;;;;;;;7.80;6.50;;;;;;;10.84;81.51;98318.07;107267;1257;69060;-38
2023/04/02 06:28:25;;;;;;;8.70;6.70;;;;;;;10.83;81.73;98320.48;107267;1257;73799;-38
2023/04/02 06:30:58;;;;;;;8.50;6.30;;;;;;;10.79;81.73;98320.32;107218;1257;62966;-38
2023/04/02 06:33:30;;;;;;;7.90;6.10;;;;;;;10.81;81.54;98323.26;107264;1254;61612;-38
2023/04/02 06:35:59;;;;;;;8.90;6.80;;;;;;;10.81;81.80;98326.36;107490;1254;74264;-38
2023/04/02 06:38:31;;;;;;;6.60;5.90;;;;;;;10.80;81.97;98324.57;107400;1256;68632;-38
2023/04/02 06:41:14;;;;;;;6.60;5.50;;;;;;;10.80;82.04;98326.28;107256;1258;73901;-38
2023/04/02 06:44:11;;;;;;;9.00;6.50;;;;;;;10.87;81.78;98327.98;107346;1255;61611;-37
2023/04/02 06:46:51;;;;;;;8.20;6.90;;;;;;;10.86;81.78;98334.27;107466;1254;61364;-37
2023/04/02 06:49:34;;;;;;;6.60;5.90;;;;;;;10.84;81.88;98334.34;107393;1254;75127;-37
2023/04/02 06:52:09;;;;;;;6.80;5.80;;;;;;;10.87;81.60;98336.20;107302;1254;68830;-37
2023/04/02 06:54:37;;;;;;;6.90;5.40;;;;;;;10.89;81.45;98338.67;107371;1255;73948;-37
2023/04/02 06:57:09;;;;;;;11.50;6.70;;;;;;;10.89;81.72;98341.00;107277;1257;61233;-37
2023/04/02 06:59:41;;;;;;;9.60;5.60;;;;;;;10.91;81.74;98343.88;107192;1255;60682;-37
2023/04/02 07:02:25;;;;;;;6.10;5.40;;;;;;;10.98;81.70;98342.55;107325;1257;74681;-37
2023/04/02 07:04:56;;;;;;;;;;;;;;;11.05;81.48;98343.89;107241;1257;68804;-37
2023/04/02 07:07:25;;;;;;;8.50;5.70;;;;;;;11.02;81.67;98348.37;107416;1254;73522;-37
2023/04/02 07:09:53;;;;;;;6.40;5.70;;;;;;;10.98;81.82;98348.53;107252;1254;61466;-37
2023/04/02 07:12:24;;;;;;;5.40;4.90;;;;;;;11.01;81.78;98348.92;107462;1254;61214;-37
2023/04/02 07:14:54;;;;;;;6.10;5.30;;;;;;;11.09;81.39;98354.89;107347;1257;74128;-37
2023/04/02 07:17:23;;;;;;;7.20;5.90;;;;;;;11.11;81.32;98352.34;107486;1254;69091;-37
2023/04/02 07:19:53;;;;;;;5.80;4.60;;;;;;;11.11;81.22;98353.58;107468;1260;73518;-37
2023/04/02 07:22:21;;;;;;;5.80;4.80;;;;;;;11.09;81.33;98357.30;107454;1255;61964;-37
2023/04/02 07:24:54;;;;;;;5.90;4.50;;;;;;;11.17;81.31;98358.69;107231;1257;61673;-37
2023/04/02 07:27:25;;;;;;;5.20;4.70;;;;;;;11.22;81.18;98359.09;107460;1256;74594;-37
2023/04/02 07:29:54;;;;;;;7.80;5.40;;;;;;;11.23;81.07;98363.34;107361;1258;68453;-37
2023/04/02 07:32:23;;;;;;;5.00;4.40;;;;;;;11.23;81.13;98360.87;107332;1259;73581;-37
2023/04/02 07:34:51;;;;;;;5.60;4.70;;;;;;;11.30;80.96;98359.77;107384;1257;63194;-37
2023/04/02 07:37:20;;;;;;;5.50;4.30;;;;;;;11.38;80.84;98358.54;107364;1255;60277;-37
2023/04/02 07:39:49;;;;;;;5.80;4.70;;;;;;;11.40;80.64;98362.02;107349;1255;75006;-37
2023/04/02 07:42:18;;;;;;;6.00;4.90;;;;;;;11.41;80.63;98363.50;107396;1254;69004;-37
2023/04/02 07:44:46;;;;;;;5.30;4.10;;;;;;;11.39;80.47;98366.36;107442;1254;73822;-37
2023/04/02 07:47:15;;;;;;;5.40;4.10;;;;;;;11.43;80.54;98366.52;107455;1255;61446;-37
2023/04/02 07:49:44;;;;;;;4.40;3.80;;;;;;;11.47;80.43;98364.02;107470;1254;61207;-37
2023/04/02 07:52:12;;;;;;;4.40;4.00;;;;;;;11.46;80.00;98362.88;107483;1255;75028;-37
2023/04/02 07:54:41;;;;;;;4.30;3.90;;;;;;;11.42;80.13;98364.20;107453;1254;68157;-37
2023/04/02 07:57:10;;;;;;;3.90;3.50;;;;;;;11.42;80.15;98364.66;107445;1255;73894;-36
2023/04/02 07:59:40;;;;;;;4.40;3.90;;;;;;;11.42;80.07;98366.37;107415;1257;61820;-37
2023/04/02 08:02:22;;;;;;;;;;;;;;;11.41;80.16;98368.15;107444;1258;61929;-37
2023/04/02 08:04:51;;;;;;;5.00;4.00;;;;;;;11.32;80.04;98367.84;107504;1257;73574;-37
2023/04/02 08:07:20;;;;;;;5.10;3.70;;;;;;;11.27;80.61;98367.22;107450;1254;69193;-37
2023/04/02 08:09:49;;;;;;;5.40;3.80;;;;;;;11.35;80.49;98367.45;107336;1254;72664;-37
2023/04/02 08:12:23;;;;;;;6.00;4.30;;;;;;;11.43;80.75;98367.45;107356;1254;61340;-37
2023/04/02 08:14:52;;;;;;;4.80;4.00;;;;;;;11.48;80.79;98367.52;107338;1256;61382;-37
2023/04/02 08:17:20;;;;;;;5.30;4.00;;;;;;;11.49;80.33;98369.84;107313;1257;75094;-37
2023/04/02 08:19:50;;;;;;;;;;;;;;;11.54;80.37;98367.59;107363;1258;70239;-37
2023/04/02 08:22:22;;;;;;;5.90;4.10;;;;;;;11.56;80.26;98373.33;107311;1257;73968;-37
2023/04/02 08:24:51;;;;;;;5.00;4.50;;;;;;;11.54;80.47;98371.39;107446;1257;61665;-37
2023/04/02 08:27:20;;;;;;;7.40;4.50;;;;;;;11.60;80.48;98374.02;107511;1258;61670;-37
2023/04/02 08:29:48;;;;;;;5.00;3.60;;;;;;;11.63;80.43;98381.00;107478;1257;75033;-37
2023/04/02 08:32:17;;;;;;;4.70;3.80;;;;;;;11.72;79.89;98381.31;107472;1257;69230;-37
2023/04/02 08:34:45;;;;;;;5.30;4.20;;;;;;;11.81;79.46;98378.37;107498;1257;73861;-37
2023/04/02 08:40:24;;;;;;;6.90;4.20;;;;;;;11.84;79.26;98381.77;104067;1292;600267;-37
2023/04/02 08:43:04;;;;;;;5.10;4.10;;;;;;;11.82;78.72;98383.26;106630;1268;63174;-37
2023/04/02 08:45:36;;;;;;;;;;;;;;;11.85;79.20;98384.34;106650;1267;60000;-37
2023/04/02 08:48:05;;;;;;;5.50;4.20;;;;;;;11.86;79.37;98388.29;106599;1266;73401;-37
2023/04/02 08:50:36;;;;;;;6.20;4.70;;;;;;;11.81;79.27;98389.39;106626;1266;68666;-37
2023/04/02 08:53:15;;;;;;;7.20;4.80;;;;;;;11.79;79.23;98391.88;106525;1267;232625;-38
2023/04/02 08:56:16;;;;;;;5.60;3.70;;;;;;;11.78;79.35;98392.95;106669;1264;63247;-37
2023/04/02 08:58:45;;;;;;;4.20;3.20;;;;;;;11.82;79.08;98396.83;107294;1257;61227;-38
2023/04/02 09:01:33;;;;;;;6.10;4.50;;;;;;;11.83;79.38;98397.22;107334;1256;73439;-38
2023/04/02 09:04:04;;;;;;;6.80;5.00;;;;;;;11.84;79.48;98397.06;107298;1257;69390;-38
2023/04/02 09:06:37;;;;;;;4.40;3.70;;;;;;;11.78;79.36;98401.80;107247;1257;72991;-38
2023/04/02 09:09:07;;;;;;;3.70;3.00;;;;;;;11.79;78.99;98398.93;107290;1257;62162;-36
2023/04/02 09:11:52;;;;;;;5.60;4.50;;;;;;;11.78;78.83;98401.10;107190;1257;61595;-36
2023/04/02 09:14:34;;;;;;;5.30;4.60;;;;;;;11.74;79.15;98398.09;107274;1256;73141;-37
2023/04/02 09:17:03;;;;;;;5.00;4.10;;;;;;;11.68;78.90;98392.35;107262;1257;68867;-37
2023/04/02 09:19:35;;;;;;;5.20;4.50;;;;;;;11.77;78.53;98404.91;107215;1257;73945;-37
2023/04/02 09:22:05;;;;;;;5.30;4.60;;;;;;;11.80;78.07;98405.99;107273;1257;61299;-37
2023/04/02 09:24:34;;;;;;;5.70;4.90;;;;;;;11.77;78.32;98406.30;107276;1256;59999;-37
2023/04/02 09:27:17;;;;;;;5.60;4.60;;;;;;;11.73;78.28;98405.21;107195;1256;73076;-37
2023/04/02 09:30:02;;;;;;;5.90;4.60;;;;;;;11.66;78.17;98406.37;107249;1257;69104;-37
2023/04/02 09:32:52;;;;;;;5.80;4.00;;;;;;;11.66;78.29;98408.30;107155;1257;73872;-37
2023/04/02 09:35:22;;;;;;;5.40;4.60;;;;;;;11.70;78.59;98409.08;107235;1256;61592;-37
2023/04/02 09:38:06;;;;;;;6.90;4.70;;;;;;;11.73;78.97;98409.02;107308;1257;60322;-38
2023/04/02 09:40:48;;;;;;;5.00;4.50;;;;;;;11.77;78.73;98416.32;107246;1257;72376;-37
2023/04/02 09:43:22;;;;;;;4.80;4.20;;;;;;;11.81;78.51;98413.67;107233;1257;69176;-37
2023/04/02 09:46:12;;;;;;;5.50;5.00;;;;;;;11.91;78.41;98413.58;107268;1257;73751;-37
2023/04/02 09:48:48;;;;;;;5.30;4.40;;;;;;;12.03;78.20;98415.88;107291;1256;59653;-37
2023/04/02 09:51:20;;;;;;;5.30;4.50;;;;;;;12.05;77.56;98418.04;107257;1257;60153;-37
2023/04/02 09:53:50;;;;;;;5.90;5.00;;;;;;;12.06;77.06;98417.11;107309;1256;74208;-37
2023/04/02 09:56:21;;;;;;;5.90;4.80;;;;;;;12.05;76.98;98420.45;107296;1257;69198;-37
2023/04/02 09:59:14;;;;;;;5.40;4.80;;;;;;;12.10;76.86;98421.77;107274;1260;73964;-37
2023/04/02 10:02:05;;;;;;;5.00;4.50;;;;;;;12.15;77.08;98418.95;107218;1257;60590;-38
2023/04/02 10:04:42;;;;;;;5.80;4.70;;;;;;;12.16;77.36;98420.89;107152;1257;60946;-37
2023/04/02 10:07:52;;;;;;;7.20;4.80;;;;;;;12.18;77.45;98419.64;107200;1257;73061;-37
2023/04/02 10:10:32;;;;;;;6.90;4.70;;;;;;;12.20;77.06;98424.68;106817;1262;69175;-37
2023/04/02 10:13:05;;;;;;;6.20;4.40;;;;;;;12.21;76.64;98425.31;107196;1257;73891;-38
2023/04/02 10:15:42;;;;;;;5.40;4.30;;;;;;;12.16;76.54;98426.31;107218;1257;60262;-37
2023/04/02 10:18:38;;;;;;;6.20;5.00;;;;;;;12.14;77.04;98426.27;107130;1257;61585;-37
2023/04/02 10:21:09;;;;;;;5.20;4.70;;;;;;;12.09;77.52;98419.52;107133;1260;73885;-38
2023/04/02 10:23:37;;;;;;;5.20;4.50;;;;;;;12.23;77.45;98427.95;107177;1257;69038;-37
2023/04/02 10:26:26;;;;;;;5.10;4.60;;;;;;;12.28;77.15;98428.48;107216;1257;71650;-38
2023/04/02 10:29:33;;;;;;;5.70;4.60;;;;;;;12.20;76.33;98430.67;107276;1257;60361;-37
2023/04/02 10:32:07;;;;;;;5.60;4.50;;;;;;;12.03;76.56;98433.50;107287;1257;61639;-37
2023/04/02 10:34:55;;;;;;;8.50;5.10;;;;;;;12.00;77.04;98436.45;107305;1257;73330;-37
2023/04/02 10:37:46;;;;;;;5.90;5.00;;;;;;;11.98;77.28;98438.48;107174;1257;68700;-37
2023/04/02 10:40:27;;;;;;;7.90;5.60;;;;;;;11.87;77.55;98442.06;107209;1257;73229;-38
2023/04/02 10:43:34;;;;;;;8.00;5.40;;;;;;;11.74;78.15;98444.23;107147;1257;60267;-37
2023/04/02 10:46:16;;;;;;;6.40;4.90;;;;;;;11.68;78.57;98446.86;107136;1258;59939;-37
2023/04/02 10:49:18;;;;;;;6.00;5.30;;;;;;;11.64;78.93;98446.55;107227;1256;74055;-37
2023/04/02 10:51:58;;;;;;;8.30;5.70;;;;;;;11.58;79.40;98447.80;107260;1257;68853;-37
2023/04/02 10:54:32;;;;;;;5.00;4.50;;;;;;;11.54;79.89;98451.89;107264;1256;72821;-37
2023/04/02 10:57:40;;;;;;;6.60;4.80;;;;;;;11.59;79.98;98453.38;107249;1260;61355;-37
2023/04/02 11:00:10;;;;;;;8.30;5.40;;;;;;;11.65;80.04;98451.98;107283;1257;60325;-37
2023/04/02 11:03:08;;;;;;;6.70;5.40;;;;;;;11.65;80.28;98454.69;107271;1257;74715;-37
2023/04/02 11:05:47;;;;;;;5.50;4.60;;;;;;;11.71;80.24;98458.96;107270;1256;69142;-37
2023/04/02 11:08:24;;;;;;;7.20;4.80;;;;;;;11.80;80.14;98457.59;107244;1257;73932;-37
2023/04/02 11:11:15;;;;;;;7.80;4.70;;;;;;;11.87;80.32;98455.41;107271;1257;61526;-37
2023/04/02 11:13:51;;;;;;;5.10;4.60;;;;;;;11.91;80.47;98457.81;107203;1257;61273;-37
2023/04/02 11:16:20;;;;;;;5.90;4.50;;;;;;;11.92;80.29;98459.29;107256;1257;74520;-38
2023/04/02 11:19:15;;;;;;;5.30;4.10;;;;;;;12.02;80.09;98462.84;107202;1256;68800;-37
2023/04/02 11:22:13;;;;;;;5.10;3.80;;;;;;;12.05;79.65;98466.17;107146;1257;73522;-37
2023/04/02 11:24:43;;;;;;;5.50;4.60;;;;;;;11.99;79.44;98466.26;107135;1256;61558;-37
2023/04/02 11:27:14;;;;;;;5.30;3.90;;;;;;;11.90;79.54;98469.22;107209;1257;61279;-37
2023/04/02 11:29:48;;;;;;;4.90;3.90;;;;;;;11.88;79.20;98471.47;107297;1256;74449;-37
2023/04/02 11:32:21;;;;;;;4.50;3.80;;;;;;;11.86;79.38;98467.36;107222;1257;69702;-37
2023/04/02 11:34:50;;;;;;;4.20;3.80;;;;;;;11.89;79.53;98469.00;107244;1256;73914;-37
2023/04/02 11:37:42;;;;;;;5.00;3.60;;;;;;;11.88;79.77;98470.38;107211;1257;62886;-37
2023/04/02 11:40:10;;;;;;;4.80;4.10;;;;;;;11.91;79.54;98469.68;107205;1256;61551;-37
2023/04/02 11:42:40;;;;;;;6.00;4.40;;;;;;;11.88;79.53;98471.23;107157;1257;74228;-37
2023/04/02 11:45:27;;;;;;;5.60;5.00;;;;;;;11.77;79.42;98470.31;107273;1257;69216;-37
2023/04/02 11:48:07;;;;;;;4.30;3.80;;;;;;;11.68;79.90;98476.35;107260;1256;73954;-38
2023/04/02 11:50:41;;;;;;;4.60;3.90;;;;;;;11.62;79.68;98475.86;107267;1257;61638;-38
2023/04/02 11:53:10;;;;;;;4.60;4.20;;;;;;;11.53;79.90;98478.58;107267;1256;60390;-38
2023/04/02 11:55:43;;;;;;;5.70;4.10;;;;;;;11.44;80.42;98479.58;107212;1256;74216;-38
2023/04/02 11:58:40;;;;;;;5.00;3.50;;;;;;;11.39;80.90;98480.80;107164;1257;68887;-38
2023/04/02 12:01:31;;;;;;;4.40;3.70;;;;;;;11.41;81.12;98478.41;107134;1257;73946;-38
2023/04/02 12:04:08;;;;;;;4.20;3.70;;;;;;;11.34;81.35;98482.73;107114;1256;61458;-38
2023/04/02 12:06:47;;;;;;;4.20;3.80;;;;;;;11.28;81.59;98484.58;107191;1257;59445;-38
2023/04/02 12:09:22;;;;;;;5.20;3.50;;;;;;;11.30;81.92;98484.67;107104;1257;73947;-37
2023/04/02 12:11:53;;;;;;;5.10;3.90;;;;;;;11.33;81.88;98483.05;107238;1257;69117;-37
2023/04/02 12:14:45;;;;;;;4.50;3.80;;;;;;;11.29;82.09;98482.34;107243;1256;73856;-38